createdAt,value
2019-05-10T00:02:15.517Z,94163.67
2019-05-10T00:05:00.701Z,94157.50
2019-05-10T00:07:45.747Z,94152.94
2019-05-10T00:10:13.065Z,94152.31
2019-05-10T00:12:53.929Z,94147.05
2019-05-10T00:15:22.443Z,94149.48
2019-05-10T00:17:51.027Z,94153.55
2019-05-10T00:20:17.841Z,94157.55
2019-05-10T00:22:44.750Z,94152.95
2019-05-10T00:25:11.626Z,94156.75
2019-05-10T00:27:38.460Z,94150.86
2019-05-10T00:30:06.106Z,94160.63
2019-05-10T00:32:32.962Z,94155.84
2019-05-10T00:34:59.909Z,94157.25
2019-05-10T00:37:27.801Z,94155.90
2019-05-10T00:39:54.484Z,94154.11
2019-05-10T00:42:21.245Z,94158.61
2019-05-10T00:44:48.143Z,94156.02
2019-05-10T00:47:14.970Z,94147.05
2019-05-10T00:49:41.834Z,94141.80
2019-05-10T00:52:08.685Z,94139.34
2019-05-10T00:54:35.586Z,94145.36
2019-05-10T00:57:02.646Z,94136.94
2019-05-10T00:59:29.475Z,94140.77
2019-05-10T01:01:56.390Z,94141.63
2019-05-10T01:04:24.194Z,94141.30
2019-05-10T01:06:51.071Z,94130.52
2019-05-10T01:09:17.955Z,94128.88
2019-05-10T01:11:44.665Z,94138.35
2019-05-10T01:14:11.354Z,94128.33
2019-05-10T01:16:38.322Z,94131.64
2019-05-10T01:19:05.186Z,94127.39
2019-05-10T01:21:33.245Z,94131.89
2019-05-10T01:23:59.937Z,94125.68
2019-05-10T01:26:26.767Z,94122.41
2019-05-10T01:28:53.427Z,94125.23
2019-05-10T01:31:20.688Z,94122.16
2019-05-10T01:33:47.370Z,94129.36
2019-05-10T01:36:14.067Z,94131.81
2019-05-10T01:38:40.745Z,94123.95
2019-05-10T01:41:07.861Z,94123.20
2019-05-10T01:43:34.649Z,94130.98
2019-05-10T01:46:01.427Z,94121.99
2019-05-10T01:48:28.165Z,94126.95
2019-05-10T01:50:54.989Z,94123.03
2019-05-10T01:53:22.725Z,94121.30
2019-05-10T01:55:52.515Z,94124.06
2019-05-10T01:58:18.291Z,94111.50
2019-05-10T02:00:45.161Z,94116.00
2019-05-10T02:03:12.944Z,94114.21
2019-05-10T02:05:39.685Z,94117.24
2019-05-10T02:08:06.392Z,94121.19
2019-05-10T02:10:33.209Z,94127.16
2019-05-10T02:13:00.042Z,94116.19
2019-05-10T02:15:26.714Z,94124.92
2019-05-10T02:17:53.404Z,94116.80
2019-05-10T02:20:20.201Z,94123.95
2019-05-10T02:22:46.968Z,94134.10
2019-05-10T02:25:13.799Z,94131.09
2019-05-10T02:27:40.481Z,94125.98
2019-05-10T02:30:07.772Z,94137.93
2019-05-10T02:32:34.509Z,94127.75
2019-05-10T02:35:01.365Z,94130.45
2019-05-10T02:37:28.014Z,94137.98
2019-05-10T02:39:54.980Z,94129.84
2019-05-10T02:42:22.941Z,94136.43
2019-05-10T02:44:49.637Z,94138.46
2019-05-10T02:47:16.397Z,94129.16
2019-05-10T02:49:43.126Z,94134.58
2019-05-10T02:52:09.792Z,94132.78
2019-05-10T02:54:36.921Z,94135.26
2019-05-10T02:57:05.501Z,94133.46
2019-05-10T02:59:32.440Z,94136.52
2019-05-10T03:02:02.740Z,94134.26
2019-05-10T03:04:33.191Z,94137.79
2019-05-10T03:07:04.353Z,94135.88
2019-05-10T03:09:32.437Z,94133.96
2019-05-10T03:12:02.828Z,94133.41
2019-05-10T03:14:33.168Z,94136.31
2019-05-10T03:17:02.761Z,94135.08
2019-05-10T03:19:30.792Z,94134.26
2019-05-10T03:22:05.541Z,94132.91
2019-05-10T03:24:32.243Z,94135.67
2019-05-10T03:26:58.987Z,94134.14
2019-05-10T03:29:25.753Z,94131.55
2019-05-10T03:31:52.505Z,94132.11
2019-05-10T03:34:19.353Z,94139.76
2019-05-10T03:36:46.345Z,94135.26
2019-05-10T03:39:13.112Z,94139.31
2019-05-10T03:41:40.393Z,94142.88
2019-05-10T03:44:07.112Z,94136.70
2019-05-10T03:46:33.812Z,94138.78
2019-05-10T03:49:00.490Z,94145.14
2019-05-10T03:51:27.314Z,94142.26
2019-05-10T03:53:53.989Z,94141.91
2019-05-10T03:56:20.760Z,94139.49
2019-05-10T03:58:47.497Z,94148.11
2019-05-10T04:01:14.313Z,94152.62
2019-05-10T04:03:41.009Z,94149.70
2019-05-10T04:06:07.838Z,94149.20
2019-05-10T04:08:34.907Z,94154.65
2019-05-10T04:11:01.614Z,94157.53
2019-05-10T04:13:28.439Z,94155.53
2019-05-10T04:15:55.138Z,94157.12
2019-05-10T04:18:21.896Z,94164.56
2019-05-10T04:20:48.711Z,94168.19
2019-05-10T04:23:15.471Z,94163.83
2019-05-10T04:25:42.237Z,94172.63
2019-05-10T04:28:09.070Z,94167.39
2019-05-10T04:30:35.966Z,94175.28
2019-05-10T04:33:02.919Z,94170.09
2019-05-10T04:35:29.732Z,94180.88
2019-05-10T04:37:56.436Z,94180.34
2019-05-10T04:40:23.311Z,94184.69
2019-05-10T04:42:50.168Z,94183.23
2019-05-10T04:45:16.862Z,94181.28
2019-05-10T04:47:43.549Z,94189.09
2019-05-10T04:50:10.833Z,94184.63
2019-05-10T04:52:37.797Z,94195.20
2019-05-10T04:55:07.905Z,94192.70
2019-05-10T04:57:49.230Z,94191.20
2019-05-10T05:00:06.205Z,94191.24
2019-05-10T05:02:32.952Z,94189.59
2019-05-10T05:04:59.654Z,94197.27
2019-05-10T05:07:26.465Z,94199.41
2019-05-10T05:09:53.197Z,94199.19
2019-05-10T05:12:19.933Z,94201.39
2019-05-10T05:14:46.989Z,94197.02
2019-05-10T05:17:13.727Z,94201.88
2019-05-10T05:19:41.090Z,94207.33
2019-05-10T05:22:07.990Z,94204.48
2019-05-10T05:24:34.826Z,94209.27
2019-05-10T05:27:01.662Z,94210.63
2019-05-10T05:29:28.365Z,94208.68
2019-05-10T05:32:00.962Z,94226.47
2019-05-10T05:34:24.049Z,94220.12
2019-05-10T05:36:50.802Z,94222.22
2019-05-10T05:39:17.545Z,94229.56
2019-05-10T05:41:49.115Z,94228.23
2019-05-10T05:44:13.190Z,94244.73
2019-05-10T05:46:40.158Z,94232.21
2019-05-10T05:49:07.078Z,94251.75
2019-05-10T05:51:33.806Z,94248.51
2019-05-10T05:54:03.902Z,94250.81
2019-05-10T05:56:29.310Z,94251.11
2019-05-10T05:58:56.342Z,94263.83
2019-05-10T06:01:28.911Z,94254.38
2019-05-10T06:03:52.104Z,94269.70
2019-05-10T06:06:23.453Z,94275.02
2019-05-10T06:08:47.603Z,94261.92
2019-05-10T06:11:14.315Z,94271.17
2019-05-10T06:13:40.987Z,94277.33
2019-05-10T06:16:13.225Z,94275.73
2019-05-10T06:18:36.514Z,94278.22
2019-05-10T06:21:03.632Z,94272.05
2019-05-10T06:23:35.104Z,94274.62
2019-05-10T06:25:59.081Z,94271.66
2019-05-10T06:28:38.072Z,94272.88
2019-05-10T06:30:54.510Z,94274.73
2019-05-10T06:33:21.188Z,94273.02
2019-05-10T06:35:47.943Z,94281.36
2019-05-10T06:38:14.668Z,94282.02
2019-05-10T06:40:47.212Z,94281.55
2019-05-10T06:43:13.275Z,94284.13
2019-05-10T06:45:38.844Z,94285.32
2019-05-10T06:48:05.616Z,94287.73
2019-05-10T06:50:32.477Z,94300.00
2019-05-10T06:53:00.782Z,94293.31
2019-05-10T06:55:28.014Z,94298.22
2019-05-10T06:57:59.584Z,94301.81
2019-05-10T07:00:23.728Z,94300.78
2019-05-10T07:02:51.065Z,94299.80
2019-05-10T07:05:18.962Z,94314.34
2019-05-10T07:07:45.804Z,94315.09
2019-05-10T07:10:18.577Z,94324.61
2019-05-10T07:12:41.544Z,94318.07
2019-05-10T07:15:09.154Z,94324.92
2019-05-10T07:17:41.332Z,94325.08
2019-05-10T07:20:06.708Z,94323.31
2019-05-10T07:22:33.474Z,94328.63
2019-05-10T07:25:04.107Z,94322.40
2019-05-10T07:27:29.987Z,94321.91
2019-05-10T07:29:56.762Z,94322.16
2019-05-10T07:32:24.597Z,94321.38
2019-05-10T07:34:58.925Z,94338.10
2019-05-10T07:37:20.605Z,94347.73
2019-05-10T07:39:47.526Z,94348.61
2019-05-10T07:42:14.264Z,94352.02
2019-05-10T07:44:41.513Z,94349.72
2019-05-10T07:47:09.886Z,94347.98
2019-05-10T07:49:36.765Z,94346.55
2019-05-10T07:52:04.488Z,94349.00
2019-05-10T07:54:31.359Z,94353.80
2019-05-10T07:56:58.667Z,94362.45
2019-05-10T07:59:30.381Z,94364.10
2019-05-10T08:01:54.033Z,94361.91
2019-05-10T08:04:31.592Z,94370.53
2019-05-10T08:06:52.132Z,94372.03
2019-05-10T08:09:19.231Z,94379.41
2019-05-10T08:11:48.351Z,94369.32
2019-05-10T08:14:15.817Z,94375.13
2019-05-10T08:16:43.491Z,94376.32
2019-05-10T08:19:10.205Z,94372.78
2019-05-10T08:21:36.885Z,94377.56
2019-05-10T08:24:13.066Z,94381.05
2019-05-10T08:26:33.164Z,94382.54
2019-05-10T08:29:02.029Z,94391.09
2019-05-10T08:31:33.874Z,94394.84
2019-05-10T08:33:58.947Z,94395.50
2019-05-10T08:36:25.788Z,94400.98
2019-05-10T08:39:05.030Z,94400.05
2019-05-10T08:41:22.333Z,94399.73
2019-05-10T08:43:49.582Z,94409.34
2019-05-10T08:46:19.414Z,94410.81
2019-05-10T08:48:50.393Z,94411.79
2019-05-10T08:51:13.666Z,94416.59
2019-05-10T08:53:42.142Z,94421.67
2019-05-10T08:56:15.927Z,94430.42
2019-05-10T08:58:37.702Z,94424.64
2019-05-10T09:01:16.725Z,94429.30
2019-05-10T09:03:32.974Z,94434.55
2019-05-10T09:06:03.751Z,94438.85
2019-05-10T09:08:31.756Z,94432.75
2019-05-10T09:10:58.087Z,94440.09
2019-05-10T09:13:28.689Z,94443.88
2019-05-10T09:15:56.836Z,94433.93
2019-05-10T09:18:23.016Z,94439.51
2019-05-10T09:20:51.852Z,94434.94
2019-05-10T09:23:22.548Z,94437.80
2019-05-10T09:25:49.025Z,94434.95
2019-05-10T09:28:17.850Z,94436.75
2019-05-10T09:30:56.855Z,94436.36
2019-05-10T09:33:14.658Z,94440.53
2019-05-10T09:35:47.011Z,94442.95
2019-05-10T09:38:12.510Z,94444.41
2019-05-10T09:40:42.433Z,94449.70
2019-05-10T09:43:09.577Z,94453.58
2019-05-10T09:45:36.339Z,94445.56
2019-05-10T09:48:03.381Z,94452.34
2019-05-10T09:50:40.557Z,94451.12
2019-05-10T09:52:59.964Z,94440.46
2019-05-10T09:55:28.024Z,94450.98
2019-05-10T09:57:54.914Z,94445.23
2019-05-10T10:00:33.758Z,94440.50
2019-05-10T10:03:01.870Z,94442.05
2019-05-10T10:05:29.967Z,94448.69
2019-05-10T10:07:57.817Z,94450.64
2019-05-10T10:10:31.699Z,94435.48
2019-05-10T10:12:58.333Z,94442.43
2019-05-10T10:15:29.792Z,94448.73
2019-05-10T10:17:58.105Z,94444.81
2019-05-10T10:20:24.343Z,94448.46
2019-05-10T10:22:54.460Z,94446.45
2019-05-10T10:25:19.681Z,94449.98
2019-05-10T10:27:48.016Z,94454.05
2019-05-10T10:30:20.677Z,94457.44
2019-05-10T10:32:44.563Z,94448.92
2019-05-10T10:35:13.334Z,94449.42
2019-05-10T10:37:40.163Z,94450.91
2019-05-10T10:40:08.741Z,94446.97
2019-05-10T10:42:38.046Z,94449.45
2019-05-10T10:45:07.420Z,94441.58
2019-05-10T10:47:34.349Z,94438.63
2019-05-10T10:50:09.216Z,94435.67
2019-05-10T10:52:31.941Z,94436.69
2019-05-10T10:54:58.735Z,94431.77
2019-05-10T10:57:27.800Z,94425.45
2019-05-10T10:59:54.147Z,94434.00
2019-05-10T11:02:32.853Z,94437.55
2019-05-10T11:04:51.755Z,94434.88
2019-05-10T11:07:18.417Z,94444.63
2019-05-10T11:09:45.091Z,94443.84
2019-05-10T11:12:14.807Z,94450.63
2019-05-10T11:14:45.205Z,94453.41
2019-05-10T11:17:11.079Z,94446.61
2019-05-10T11:19:37.656Z,94441.02
2019-05-10T11:22:09.730Z,94435.58
2019-05-10T11:24:33.206Z,94433.74
2019-05-10T11:27:01.118Z,94434.84
2019-05-10T11:29:28.601Z,94440.04
2019-05-10T11:32:13.572Z,94435.55
2019-05-10T11:34:29.417Z,94438.59
2019-05-10T11:36:53.878Z,94428.91
2019-05-10T11:39:26.438Z,94428.04
2019-05-10T11:41:52.956Z,94431.35
2019-05-10T11:44:22.059Z,94432.62
2019-05-10T11:46:50.635Z,94430.75
2019-05-10T11:49:17.103Z,94425.95
2019-05-10T11:51:47.953Z,94426.80
2019-05-10T11:54:13.569Z,94428.48
2019-05-10T11:56:41.081Z,94418.73
2019-05-10T11:59:15.835Z,94424.50
2019-05-10T12:01:41.478Z,94422.66
2019-05-10T12:04:12.058Z,94432.50
2019-05-10T12:06:34.545Z,94438.08
2019-05-10T12:09:08.333Z,94439.41
2019-05-10T12:14:03.686Z,94436.04
2019-05-10T12:16:33.421Z,94446.19
2019-05-10T12:19:10.504Z,94447.82
2019-05-10T12:21:27.685Z,94463.52
2019-05-10T12:23:56.332Z,94479.04
2019-05-10T12:26:05.229Z,94438.95
2019-05-10T12:28:52.346Z,94503.51
2019-05-10T12:31:21.126Z,94492.08
2019-05-10T12:33:47.640Z,94491.70
2019-05-10T12:36:23.459Z,94486.70
2019-05-10T12:38:43.066Z,94477.03
2019-05-10T12:41:09.741Z,94480.25
2019-05-10T12:43:36.495Z,94479.95
2019-05-10T12:46:03.372Z,94465.41
2019-05-10T12:48:32.110Z,94468.30
2019-05-10T12:51:04.956Z,94469.10
2019-05-10T12:53:27.676Z,94473.26
2019-05-10T12:55:54.388Z,94473.91
2019-05-10T12:58:21.297Z,94474.62
2019-05-10T13:00:52.715Z,94475.78
2019-05-10T13:03:19.217Z,94471.61
2019-05-10T13:05:52.528Z,94470.81
2019-05-10T13:08:13.858Z,94457.37
2019-05-10T13:10:43.183Z,94459.78
2019-05-10T13:13:09.193Z,94471.77
2019-05-10T13:15:35.935Z,94476.98
2019-05-10T13:18:02.670Z,94473.19
2019-05-10T13:20:35.907Z,94474.83
2019-05-10T13:22:59.203Z,94481.80
2019-05-10T13:25:26.019Z,94488.14
2019-05-10T13:27:52.793Z,94486.45
2019-05-10T13:30:27.046Z,94487.61
2019-05-10T13:32:52.771Z,94487.20
2019-05-10T13:35:18.591Z,94487.31
2019-05-10T13:37:45.436Z,94488.94
2019-05-10T13:40:12.483Z,94492.84
2019-05-10T13:42:43.181Z,94490.38
2019-05-10T13:48:45.082Z,94495.94
2019-05-10T13:51:12.765Z,94493.55
2019-05-10T13:53:39.545Z,94489.89
2019-05-10T13:56:09.024Z,94493.48
2019-05-10T13:58:38.000Z,94494.38
2019-05-10T14:01:06.786Z,94497.18
2019-05-10T14:03:44.147Z,94501.34
2019-05-10T14:06:02.404Z,94493.52
2019-05-10T14:08:29.160Z,94496.66
2019-05-10T14:11:01.507Z,94498.69
2019-05-10T14:13:24.904Z,94497.52
2019-05-10T14:15:51.910Z,94499.03
2019-05-10T14:29:36.865Z,94502.91
2019-05-10T14:32:10.732Z,94508.80
2019-05-10T14:34:49.253Z,94505.64
2019-05-10T14:37:27.263Z,94511.78
2019-05-10T14:40:27.504Z,94509.12
2019-05-10T14:42:48.347Z,94518.25
2019-05-10T14:46:25.646Z,94507.88
2019-05-10T14:53:52.393Z,94509.78
2019-05-10T14:56:19.540Z,94512.07
2019-05-10T14:58:46.272Z,94512.14
2019-05-10T15:01:13.039Z,94519.51
2019-05-10T15:03:45.491Z,94526.80
2019-05-10T15:06:08.545Z,94526.19
2019-05-10T15:08:35.308Z,94525.18
2019-05-10T15:11:02.239Z,94524.95
2019-05-10T15:13:29.104Z,94527.72
2019-05-10T15:15:55.891Z,94523.79
2019-05-10T15:18:22.705Z,94529.54
2019-05-10T15:20:49.506Z,94529.45
2019-05-10T15:23:16.325Z,94530.22
2019-05-10T15:25:56.655Z,94529.34
2019-05-10T15:28:11.726Z,94520.84
2019-05-10T15:30:39.368Z,94525.18
2019-05-10T15:33:07.591Z,94517.09
2019-05-10T15:35:34.355Z,94523.70
2019-05-10T15:38:01.199Z,94524.08
2019-05-10T15:40:27.954Z,94521.17
2019-05-10T15:42:54.740Z,94521.31
2019-05-10T15:45:21.584Z,94524.34
2019-05-10T15:47:51.653Z,94527.25
2019-05-10T15:50:17.210Z,94522.66
2019-05-10T15:52:46.620Z,94531.83
2019-05-10T15:55:16.424Z,94520.03
2019-05-10T15:57:41.906Z,94526.69
2019-05-10T16:00:09.056Z,94522.47
2019-05-10T16:02:35.953Z,94525.02
2019-05-10T16:05:23.287Z,94526.31
2019-05-10T16:07:34.851Z,94522.25
2019-05-10T16:10:01.719Z,94521.39
2019-05-10T16:12:28.487Z,94518.37
2019-05-10T16:14:55.245Z,94522.80
2019-05-10T16:17:23.972Z,94524.69
2019-05-10T16:19:58.889Z,94522.25
2019-05-10T16:22:19.659Z,94522.84
2019-05-10T16:24:46.496Z,94520.09
2019-05-10T16:27:13.478Z,94526.97
2019-05-10T16:29:41.410Z,94521.77
2019-05-10T16:32:08.336Z,94528.75
2019-05-10T16:34:35.195Z,94524.97
2019-05-10T16:37:01.963Z,94526.13
2019-05-10T16:39:29.038Z,94521.48
2019-05-10T16:41:55.922Z,94533.12
2019-05-10T16:44:22.907Z,94531.77
2019-05-10T16:46:50.046Z,94532.03
2019-05-10T16:49:17.320Z,94543.70
2019-05-10T16:51:47.920Z,94537.84
2019-05-10T16:54:13.647Z,94537.38
2019-05-10T16:56:40.550Z,94539.41
2019-05-10T16:59:07.333Z,94541.13
2019-05-10T17:01:34.086Z,94532.54
2019-05-10T17:04:01.803Z,94540.83
2019-05-10T17:06:28.806Z,94551.28
2019-05-10T17:08:55.613Z,94542.15
2019-05-10T17:11:22.709Z,94549.38
2019-05-10T17:13:49.465Z,94547.22
2019-05-10T17:16:18.828Z,94547.75
2019-05-10T17:18:49.859Z,94566.83
2019-05-10T17:21:13.644Z,94559.49
2019-05-10T17:23:46.212Z,94565.98
2019-05-10T17:26:09.530Z,94561.20
2019-05-10T17:28:37.413Z,94568.78
2019-05-10T17:31:07.830Z,94565.27
2019-05-10T17:33:36.850Z,94581.63
2019-05-10T17:36:08.491Z,94581.07
2019-05-10T17:38:31.775Z,94585.03
2019-05-10T17:40:58.841Z,94580.84
2019-05-10T17:43:26.148Z,94578.91
2019-05-10T17:45:52.910Z,94575.92
2019-05-10T17:48:19.667Z,94583.28
2019-05-10T17:50:46.430Z,94584.45
2019-05-10T17:53:13.426Z,94586.50
2019-05-10T17:55:40.184Z,94588.98
2019-05-10T17:58:06.980Z,94588.81
2019-05-10T18:00:33.740Z,94586.50
2019-05-10T18:03:00.550Z,94600.69
2019-05-10T18:05:27.396Z,94592.77
2019-05-10T18:07:54.193Z,94593.48
2019-05-10T18:10:20.962Z,94585.05
2019-05-10T18:12:47.895Z,94591.30
2019-05-10T18:15:14.938Z,94591.22
2019-05-10T18:17:42.045Z,94593.95
2019-05-10T18:20:09.608Z,94600.02
2019-05-10T18:22:43.292Z,94609.58
2019-05-10T18:25:05.702Z,94607.84
2019-05-10T18:27:32.534Z,94612.70
2019-05-10T18:29:59.297Z,94611.12
2019-05-10T18:32:29.170Z,94613.88
2019-05-10T18:34:54.809Z,94611.17
2019-05-10T18:37:23.261Z,94608.45
2019-05-10T18:39:59.753Z,94619.02
2019-05-10T18:42:27.930Z,94615.58
2019-05-10T18:44:54.949Z,94625.63
2019-05-10T18:47:21.690Z,94623.98
2019-05-10T18:49:48.472Z,94640.53
2019-05-10T18:52:15.430Z,94637.69
2019-05-10T18:54:42.212Z,94635.63
2019-05-10T18:57:12.288Z,94631.52
2019-05-10T18:59:39.659Z,94633.06
2019-05-10T19:02:11.741Z,94631.52
2019-05-10T19:04:36.590Z,94645.64
2019-05-10T19:07:09.857Z,94643.75
2019-05-10T19:09:32.507Z,94651.16
2019-05-10T19:11:59.644Z,94650.53
2019-05-10T19:14:29.663Z,94647.11
2019-05-10T19:16:55.435Z,94652.17
2019-05-10T19:19:22.286Z,94654.09
2019-05-10T19:21:49.073Z,94649.38
2019-05-10T19:24:17.107Z,94651.98
2019-05-10T19:26:43.945Z,94650.02
2019-05-10T19:29:10.735Z,94652.36
2019-05-10T19:31:40.120Z,94648.63
2019-05-10T19:34:08.989Z,94649.09
2019-05-10T19:36:35.359Z,94648.58
2019-05-10T19:39:02.236Z,94647.55
2019-05-10T19:41:30.276Z,94648.85
2019-05-10T19:44:02.572Z,94651.94
2019-05-10T19:46:30.103Z,94642.96
2019-05-10T19:48:54.825Z,94649.27
2019-05-10T19:51:22.824Z,94660.72
2019-05-10T19:53:49.946Z,94653.62
2019-05-10T19:56:17.027Z,94664.57
2019-05-10T19:58:43.784Z,94656.22
2019-05-10T20:01:10.654Z,94663.04
2019-05-10T20:03:37.428Z,94663.28
2019-05-10T20:06:04.317Z,94665.75
2019-05-10T20:08:31.190Z,94671.97
2019-05-10T20:10:58.023Z,94672.33
2019-05-10T20:13:25.694Z,94676.16
2019-05-10T20:15:52.481Z,94673.13
2019-05-10T20:18:19.367Z,94670.86
2019-05-10T20:20:46.190Z,94680.34
2019-05-10T20:23:13.146Z,94680.06
2019-05-10T20:25:39.924Z,94679.55
2019-05-10T20:28:06.789Z,94688.79
2019-05-10T20:30:33.656Z,94688.43
2019-05-10T20:33:00.405Z,94681.66
2019-05-10T20:35:27.232Z,94679.91
2019-05-10T20:38:01.975Z,94687.27
2019-05-10T20:40:22.673Z,94684.63
2019-05-10T20:42:49.427Z,94683.63
2019-05-10T20:45:16.379Z,94691.13
2019-05-10T20:47:43.130Z,94692.79
2019-05-10T20:50:11.047Z,94692.48
2019-05-10T20:52:37.806Z,94697.17
2019-05-10T20:55:05.026Z,94692.94
2019-05-10T20:57:32.994Z,94692.94
2019-05-10T20:59:59.796Z,94697.31
2019-05-10T21:02:26.567Z,94695.20
2019-05-10T21:04:53.507Z,94694.47
2019-05-10T21:07:20.310Z,94701.81
2019-05-10T21:09:47.088Z,94702.71
2019-05-10T21:12:14.919Z,94700.14
2019-05-10T21:14:41.776Z,94700.66
2019-05-10T21:17:08.782Z,94699.86
2019-05-10T21:19:35.602Z,94698.60
2019-05-10T21:22:02.469Z,94703.24
2019-05-10T21:24:29.249Z,94704.56
2019-05-10T21:26:56.074Z,94708.19
2019-05-10T21:29:22.895Z,94698.16
2019-05-10T21:31:49.634Z,94702.83
2019-05-10T21:34:16.465Z,94707.72
2019-05-10T21:36:43.249Z,94707.97
2019-05-10T21:39:10.045Z,94705.32
2019-05-10T21:41:36.835Z,94712.27
2019-05-10T21:44:03.861Z,94714.67
2019-05-10T21:46:30.591Z,94717.93
2019-05-10T21:48:57.383Z,94716.83
2019-05-10T21:51:24.164Z,94715.47
2019-05-10T21:53:51.005Z,94716.52
2019-05-10T21:56:17.786Z,94718.64
2019-05-10T21:58:44.563Z,94715.88
2019-05-10T22:01:11.330Z,94712.48
2019-05-10T22:03:38.319Z,94714.03
2019-05-10T22:06:05.111Z,94706.69
2019-05-10T22:08:48.027Z,94711.79
2019-05-10T22:11:01.152Z,94720.43
2019-05-10T22:13:28.147Z,94716.09
2019-05-10T22:15:54.916Z,94706.59
2019-05-10T22:18:21.681Z,94711.52
2019-05-10T22:20:48.427Z,94709.61
2019-05-10T22:23:15.269Z,94713.81
2019-05-10T22:25:42.035Z,94709.02
2019-05-10T22:28:08.785Z,94712.83
2019-05-10T22:30:35.582Z,94711.52
2019-05-10T22:33:02.571Z,94708.78
2019-05-10T22:35:29.335Z,94708.16
2019-05-10T22:37:56.106Z,94706.59
2019-05-10T22:40:22.877Z,94714.44
2019-05-10T22:42:49.709Z,94708.01
2019-05-10T22:45:16.468Z,94712.31
2019-05-10T22:47:43.274Z,94708.31
2019-05-10T22:50:10.328Z,94710.74
2019-05-10T22:52:37.152Z,94709.61
2019-05-10T22:55:04.709Z,94713.91
2019-05-10T22:57:31.653Z,94710.98
2019-05-10T22:59:58.412Z,94713.94
2019-05-10T23:02:25.405Z,94709.30
2019-05-10T23:04:52.306Z,94704.26
2019-05-10T23:07:19.169Z,94709.05
2019-05-10T23:09:45.930Z,94710.62
2019-05-10T23:12:12.768Z,94706.84
2019-05-10T23:14:39.536Z,94711.39
2019-05-10T23:17:06.291Z,94708.61
2019-05-10T23:19:33.077Z,94708.34
2019-05-10T23:21:59.921Z,94711.02
2019-05-10T23:24:37.190Z,94723.41
2019-05-10T23:27:06.848Z,94711.74
2019-05-10T23:29:34.851Z,94714.45
2019-05-10T23:32:01.712Z,94712.55
2019-05-10T23:34:28.689Z,94710.60
2019-05-10T23:36:55.619Z,94708.94
2019-05-10T23:39:38.374Z,94719.21
2019-05-10T23:41:52.564Z,94718.30
2019-05-10T23:44:19.364Z,94711.50
2019-05-10T23:46:46.498Z,94712.40
2019-05-10T23:49:13.286Z,94706.95
2019-05-10T23:51:40.081Z,94710.98
2019-05-10T23:54:06.869Z,94712.67
2019-05-10T23:56:33.770Z,94708.89
2019-05-10T23:59:00.640Z,94716.84
